This demonstration page uses our WeatherBlox Daily Observations layout. Learn more.

38.88101, -77.10428

Hourly Observations for December 19, 2018

Temp ( °F °C ) Dew Point ( °F °C ) Humidity (%) Winds ( mph kmh ) Pressure ( in mb ) Visibility ( mi km ) Precip ( " mm )
12:52 am 00:52 Partly Cloudy 34 1.1 25 -3.9 70 70 SSW 5 7 30.19 1023 10 16.0934 0 0
1:52 am 01:52 Mostly Clear 32 0 24 -4.4 73 73 SSW 8 13 30.22 1023 10 16.0934 0 0
2:52 am 02:52 Mostly Clear 32 0 24 -4.4 73 73 SSW 5 7 30.22 1023 10 16.0934 0 0
3:52 am 03:52 Mostly Clear 33 0.6 23 -5 66 66 WSW 3 6 30.21 1023 10 16.0934 0 0
4:52 am 04:52 Mostly Clear 32 0 23 -5 69 69 SW 3 6 30.2 1023 10 16.0934 0 0
5:52 am 05:52 Mostly Clear 32 0 25 -3.9 75 75 Calm 30.2 1023 10 16.0934 0 0
6:52 am 06:52 Mostly Clear 33 0.6 25 -3.9 72 72 SW 5 7 30.2 1023 10 16.0934 0 0
7:52 am 07:52 Mostly Sunny 33 0.6 26 -3.3 75 75 VRB 3 6 30.2 1023 10 16.0934 0 0
8:52 am 08:52 Mostly Cloudy 35 1.7 30 -1.1 82 82 Calm 30.21 1023 10 16.0934 0 0
9:52 am 09:52 Cloudy 38 3.3 29 -1.7 70 70 S 7 11 30.22 1023 10 16.0934 0 0
10:52 am 10:52 Cloudy 41 5 29 -1.7 62 62 S 7 11 30.19 1023 10 16.0934 0 0
11:52 am 11:52 Cloudy 45 7.2 30 -1.1 56 56 S 9 15 30.16 1021 10 16.0934 0 0
12:52 pm 12:52 Cloudy 49 9.4 31 -0.6 50 50 S 8 13 30.12 1020 10 16.0934 0 0
1:52 pm 13:52 Cloudy 50 10 30 -1.1 46 46 S 9 15 30.09 1019 10 16.0934 0 0
2:52 pm 14:52 Mostly Cloudy 50 10 32 0 50 50 S 9 15 30.09 1019 10 16.0934 0 0
3:52 pm 15:52 Mostly Cloudy 49 9.4 33 0.6 55 55 S 8 13 30.09 1019 10 16.0934 0 0
5:52 pm 17:52 Mostly Cloudy 46 7.8 31 -0.6 56 56 SSE 6 9 30.1 1019 10 16.0934 0 0
6:52 pm 18:52 Partly Cloudy 45 7.2 29 -1.7 54 54 SSE 7 11 30.1 1019 10 16.0934 0 0
7:52 pm 19:52 Partly Cloudy 42 5.6 30 -1.1 62 62 SSE 5 7 30.11 1020 10 16.0934 0 0
8:52 pm 20:52 Partly Cloudy 42 5.6 30 -1.1 62 62 SSE 7 11 30.11 1020 10 16.0934 0 0
9:52 pm 21:52 Partly Cloudy 40 4.4 31 -0.6 70 70 S 7 11 30.11 1020 10 16.0934 0 0
10:52 pm 22:52 Mostly Clear 41 5 31 -0.6 67 67 SSE 6 9 30.11 1020 10 16.0934 0 0
11:52 pm 23:52 Clear 40 4.4 30 -1.1 68 68 SSW 3 6 30.11 1020 10 16.0934 0 0

Powered by AerisWeather